createdAt,value
2022-10-05T00:00:52.754Z,100.00
2022-10-05T00:03:22.733Z,100.00
2022-10-05T00:05:51.181Z,100.00
2022-10-05T00:08:23.095Z,100.00
2022-10-05T00:10:51.543Z,100.00
2022-10-05T00:13:23.224Z,100.00
2022-10-05T00:15:51.943Z,100.00
2022-10-05T00:18:22.100Z,100.00
2022-10-05T00:20:50.526Z,100.00
2022-10-05T00:23:22.493Z,100.00
2022-10-05T00:25:50.872Z,100.00
2022-10-05T00:28:22.877Z,100.00
2022-10-05T00:30:51.227Z,100.00
2022-10-05T00:33:21.930Z,100.00
2022-10-05T00:35:50.210Z,100.00
2022-10-05T00:38:18.484Z,100.00
2022-10-05T00:40:57.434Z,100.00
2022-10-05T00:43:40.697Z,100.00
2022-10-05T00:46:14.472Z,100.00
2022-10-05T00:48:49.191Z,100.00
2022-10-05T00:51:26.804Z,100.00
2022-10-05T00:54:03.923Z,100.00
2022-10-05T00:56:46.941Z,100.00
2022-10-05T00:59:23.166Z,100.00
2022-10-05T01:01:57.410Z,100.00
2022-10-05T01:04:33.470Z,100.00
2022-10-05T01:07:08.034Z,100.00
2022-10-05T01:09:42.130Z,100.00
2022-10-05T01:12:19.329Z,100.00
2022-10-05T01:14:52.143Z,100.00
2022-10-05T01:17:25.950Z,100.00
2022-10-05T01:20:13.039Z,100.00
2022-10-05T01:22:56.548Z,100.00
2022-10-05T01:25:28.316Z,100.00
2022-10-05T01:28:03.974Z,100.00
2022-10-05T01:30:38.066Z,100.00
2022-10-05T01:33:13.710Z,100.00
2022-10-05T01:35:49.579Z,100.00
2022-10-05T01:38:26.689Z,100.00
2022-10-05T01:41:01.491Z,100.00
2022-10-05T01:43:35.909Z,100.00
2022-10-05T01:46:10.250Z,100.00
2022-10-05T01:48:49.759Z,100.00
2022-10-05T01:51:23.752Z,100.00
2022-10-05T01:54:00.112Z,100.00
2022-10-05T01:56:34.104Z,100.00
2022-10-05T01:59:16.138Z,100.00
2022-10-05T02:01:50.121Z,100.00
2022-10-05T02:04:43.597Z,100.00
2022-10-05T02:07:15.145Z,100.00
2022-10-05T02:09:46.576Z,100.00
2022-10-05T02:12:17.649Z,100.00
2022-10-05T02:14:51.076Z,100.00
2022-10-05T02:17:23.555Z,100.00
2022-10-05T02:19:52.927Z,100.00
2022-10-05T02:22:24.468Z,100.00
2022-10-05T02:24:56.488Z,100.00
2022-10-05T02:27:29.398Z,100.00
2022-10-05T02:30:03.736Z,100.00
2022-10-05T02:32:39.876Z,100.00
2022-10-05T02:35:14.585Z,100.00
2022-10-05T02:37:50.267Z,100.00
2022-10-05T02:40:27.592Z,100.00
2022-10-05T02:43:01.507Z,100.00
2022-10-05T02:45:39.629Z,100.00
2022-10-05T02:48:12.655Z,100.00
2022-10-05T02:50:46.705Z,100.00
2022-10-05T02:53:23.779Z,100.00
2022-10-05T02:55:59.125Z,100.00
2022-10-05T02:58:30.097Z,100.00
2022-10-05T03:01:06.717Z,100.00
2022-10-05T03:03:39.222Z,100.00
2022-10-05T03:06:14.579Z,100.00
2022-10-05T03:08:45.989Z,100.00
2022-10-05T03:11:21.835Z,100.00
2022-10-05T03:13:54.263Z,100.00
2022-10-05T03:16:40.742Z,100.00
2022-10-05T03:19:18.282Z,100.00
2022-10-05T03:21:55.166Z,100.00
2022-10-05T03:24:48.478Z,100.00
2022-10-05T03:27:27.731Z,100.00
2022-10-05T03:30:01.806Z,100.00
2022-10-05T03:32:42.219Z,100.00
2022-10-05T03:35:14.035Z,100.00
2022-10-05T03:37:47.324Z,100.00
2022-10-05T03:40:24.134Z,100.00
2022-10-05T03:43:02.492Z,100.00
2022-10-05T03:45:36.105Z,100.00
2022-10-05T03:48:10.401Z,100.00
2022-10-05T03:50:46.523Z,100.00
2022-10-05T03:53:19.353Z,100.00
2022-10-05T03:55:53.282Z,100.00
2022-10-05T03:58:25.307Z,100.00
2022-10-05T04:00:55.552Z,100.00
2022-10-05T04:03:30.496Z,100.00
2022-10-05T04:06:02.314Z,100.00
2022-10-05T04:08:36.749Z,100.00
2022-10-05T04:11:07.392Z,100.00
2022-10-05T04:13:38.763Z,100.00
2022-10-05T04:16:12.747Z,100.00
2022-10-05T04:18:47.173Z,100.00
2022-10-05T04:21:23.736Z,100.00
2022-10-05T04:23:58.911Z,100.00
2022-10-05T04:26:35.071Z,100.00
2022-10-05T04:29:07.673Z,100.00
2022-10-05T04:31:49.356Z,100.00
2022-10-05T04:34:42.938Z,100.00
2022-10-05T04:37:17.091Z,100.00
2022-10-05T04:39:49.950Z,100.00
2022-10-05T04:42:22.946Z,100.00
2022-10-05T04:45:10.110Z,100.00
2022-10-05T04:48:03.078Z,100.00
2022-10-05T04:50:47.306Z,100.00
2022-10-05T04:53:25.707Z,100.00
2022-10-05T04:55:59.605Z,100.00
2022-10-05T04:58:42.214Z,100.00
2022-10-05T05:01:23.766Z,100.00
2022-10-05T05:04:06.331Z,100.00
2022-10-05T05:06:40.189Z,100.00
2022-10-05T05:09:23.808Z,100.00
2022-10-05T05:12:03.919Z,100.00
2022-10-05T05:14:42.473Z,100.00
2022-10-05T05:17:22.471Z,100.00
2022-10-05T05:19:58.665Z,100.00
2022-10-05T05:22:32.978Z,100.00
2022-10-05T05:25:20.607Z,100.00
2022-10-05T05:27:54.946Z,100.00
2022-10-05T05:30:26.720Z,100.00
2022-10-05T05:33:18.670Z,100.00
2022-10-05T05:36:24.884Z,100.00
2022-10-05T05:39:14.583Z,100.00
2022-10-05T05:41:49.778Z,100.00
2022-10-05T05:44:21.909Z,100.00
2022-10-05T05:47:04.311Z,100.00
2022-10-05T05:49:46.745Z,100.00
2022-10-05T05:52:19.421Z,100.00
2022-10-05T05:54:53.868Z,100.00
2022-10-05T05:57:26.051Z,100.00
2022-10-05T06:00:01.894Z,100.00
2022-10-05T06:02:35.478Z,100.00
2022-10-05T06:05:11.163Z,100.00
2022-10-05T06:07:39.916Z,100.00
2022-10-05T06:10:18.272Z,100.00
2022-10-05T06:13:00.847Z,100.00
2022-10-05T06:15:34.548Z,100.00
2022-10-05T06:18:04.963Z,100.00
2022-10-05T06:20:38.322Z,100.00
2022-10-05T06:23:11.444Z,100.00
2022-10-05T06:25:55.750Z,100.00
2022-10-05T06:28:27.169Z,100.00
2022-10-05T06:31:02.256Z,100.00
2022-10-05T06:33:47.969Z,100.00
2022-10-05T06:36:36.315Z,100.00
2022-10-05T06:39:23.570Z,100.00
2022-10-05T06:42:06.258Z,100.00
2022-10-05T06:45:20.900Z,100.00
2022-10-05T06:48:12.413Z,100.00
2022-10-05T06:50:56.713Z,100.00
2022-10-05T06:53:36.261Z,100.00
2022-10-05T06:56:10.242Z,100.00
2022-10-05T06:58:54.584Z,100.00
2022-10-05T07:01:35.765Z,100.00
2022-10-05T07:04:18.175Z,100.00
2022-10-05T07:06:52.577Z,100.00
2022-10-05T07:09:32.454Z,100.00
2022-10-05T07:12:17.556Z,100.00
2022-10-05T07:14:59.846Z,100.00
2022-10-05T07:17:42.580Z,100.00
2022-10-05T07:20:17.440Z,100.00
2022-10-05T07:23:02.921Z,100.00
2022-10-05T07:25:36.792Z,100.00
2022-10-05T07:28:08.165Z,100.00
2022-10-05T07:30:43.824Z,100.00
2022-10-05T07:33:15.548Z,100.00
2022-10-05T07:36:08.619Z,100.00
2022-10-05T07:38:39.982Z,100.00
2022-10-05T07:41:14.266Z,100.00
2022-10-05T07:44:03.297Z,100.00
2022-10-05T07:47:01.621Z,100.00
2022-10-05T07:49:36.905Z,100.00
2022-10-05T07:52:08.108Z,100.00
2022-10-05T07:54:45.832Z,100.00
2022-10-05T07:57:21.461Z,100.00
2022-10-05T07:59:55.364Z,100.00
2022-10-05T08:02:28.543Z,100.00
2022-10-05T08:05:00.653Z,100.00
2022-10-05T08:07:30.363Z,100.00
2022-10-05T08:10:03.248Z,100.00
2022-10-05T08:12:33.947Z,100.00
2022-10-05T08:15:06.201Z,100.00
2022-10-05T08:17:43.776Z,100.00
2022-10-05T08:20:29.056Z,100.00
2022-10-05T08:22:59.863Z,100.00
2022-10-05T08:25:37.427Z,100.00
2022-10-05T08:28:11.819Z,100.00
2022-10-05T08:30:50.775Z,100.00
2022-10-05T08:33:21.482Z,100.00
2022-10-05T08:35:55.916Z,100.00
2022-10-05T08:38:30.406Z,100.00
2022-10-05T08:41:23.281Z,100.00
2022-10-05T08:44:23.008Z,100.00
2022-10-05T08:47:20.903Z,100.00
2022-10-05T08:50:03.924Z,100.00
2022-10-05T08:52:33.749Z,100.00
2022-10-05T08:55:24.446Z,100.00
2022-10-05T08:58:27.688Z,100.00
2022-10-05T09:01:01.017Z,100.00
2022-10-05T09:04:05.219Z,100.00
2022-10-05T09:06:53.935Z,100.00
2022-10-05T09:10:03.469Z,100.00
2022-10-05T09:13:07.829Z,100.00
2022-10-05T09:16:01.582Z,100.00
2022-10-05T09:19:03.204Z,100.00
2022-10-05T09:21:42.081Z,100.00
2022-10-05T09:24:30.174Z,100.00
2022-10-05T09:27:10.839Z,100.00
2022-10-05T09:30:03.577Z,100.00
2022-10-05T09:33:09.083Z,100.00
2022-10-05T09:36:05.718Z,100.00
2022-10-05T09:38:47.918Z,100.00
2022-10-05T09:41:31.731Z,100.00
2022-10-05T09:44:36.387Z,100.00
2022-10-05T09:47:37.263Z,98.84
2022-10-05T09:50:29.236Z,100.00
2022-10-05T09:53:23.994Z,100.00
2022-10-05T09:56:16.229Z,98.09
2022-10-05T09:59:27.396Z,93.71
2022-10-05T10:02:14.121Z,87.06
2022-10-05T10:05:05.744Z,83.49
2022-10-05T10:07:48.666Z,88.06
2022-10-05T10:10:55.394Z,80.28
2022-10-05T10:13:38.233Z,78.22
2022-10-05T10:16:23.654Z,67.67
2022-10-05T10:19:13.774Z,65.91
2022-10-05T10:22:16.029Z,65.50
2022-10-05T10:25:00.894Z,61.82
2022-10-05T10:27:39.938Z,61.79
2022-10-05T10:30:27.514Z,57.90
2022-10-05T10:33:13.819Z,64.38
2022-10-05T10:35:44.929Z,59.71
2022-10-05T10:38:33.387Z,60.14
2022-10-05T10:41:28.489Z,58.24
2022-10-05T10:44:07.358Z,56.43
2022-10-05T10:46:41.000Z,55.35
2022-10-05T10:49:38.013Z,54.34
2022-10-05T10:52:22.869Z,53.06
2022-10-05T10:55:18.188Z,51.61
2022-10-05T10:57:59.217Z,53.55
2022-10-05T11:00:42.392Z,54.10
2022-10-05T11:03:42.585Z,57.78
2022-10-05T11:06:48.912Z,55.90
2022-10-05T11:09:37.184Z,52.91
2022-10-05T11:12:22.107Z,52.18
2022-10-05T11:15:24.658Z,50.68
2022-10-05T11:18:06.155Z,50.24
2022-10-05T11:20:52.723Z,52.40
2022-10-05T11:23:38.764Z,52.48
2022-10-05T11:26:28.678Z,50.12
2022-10-05T11:29:17.927Z,48.42
2022-10-05T11:32:04.129Z,47.80
2022-10-05T11:34:49.280Z,48.61
2022-10-05T11:37:53.961Z,47.30
2022-10-05T11:40:38.885Z,46.70
2022-10-05T11:43:28.758Z,46.97
2022-10-05T11:46:05.357Z,46.90
2022-10-05T11:48:51.954Z,44.15
2022-10-05T11:51:43.197Z,44.82
2022-10-05T11:54:28.688Z,43.16
2022-10-05T11:57:01.909Z,47.27
2022-10-05T11:59:35.723Z,46.41
2022-10-05T12:02:15.528Z,46.50
2022-10-05T12:04:50.435Z,48.19
2022-10-05T12:07:23.827Z,49.49
2022-10-05T12:10:17.503Z,49.71
2022-10-05T12:13:06.176Z,51.69
2022-10-05T12:15:41.818Z,49.95
2022-10-05T12:18:14.070Z,52.64
2022-10-05T12:20:48.712Z,52.11
2022-10-05T12:23:22.620Z,53.76
2022-10-05T12:25:55.700Z,55.95
2022-10-05T12:28:36.342Z,54.98
2022-10-05T12:31:13.911Z,56.80
2022-10-05T12:33:47.888Z,58.14
2022-10-05T12:36:19.296Z,57.25
2022-10-05T12:38:52.101Z,60.44
2022-10-05T12:41:24.009Z,62.95
2022-10-05T12:44:03.418Z,61.91
2022-10-05T12:46:36.237Z,59.95
2022-10-05T12:49:31.769Z,57.12
2022-10-05T12:52:01.453Z,56.57
2022-10-05T12:54:38.782Z,59.99
2022-10-05T12:57:14.392Z,57.47
2022-10-05T12:59:45.979Z,54.70
2022-10-05T13:02:23.613Z,54.99
2022-10-05T13:04:56.987Z,52.57
2022-10-05T13:07:40.068Z,52.61
2022-10-05T13:10:19.772Z,51.78
2022-10-05T13:12:55.747Z,50.09
2022-10-05T13:15:28.707Z,51.11
2022-10-05T13:18:05.479Z,53.84
2022-10-05T13:20:36.501Z,56.49
2022-10-05T13:23:08.967Z,60.81
2022-10-05T13:25:39.734Z,62.63
2022-10-05T13:28:28.417Z,71.63
2022-10-05T13:31:04.515Z,73.03
2022-10-05T13:33:47.560Z,84.78
2022-10-05T13:36:22.077Z,95.20
2022-10-05T13:38:56.595Z,100.00
2022-10-05T13:41:32.184Z,100.00
2022-10-05T13:44:23.179Z,100.00
2022-10-05T13:46:56.466Z,100.00
2022-10-05T13:49:28.989Z,98.53
2022-10-05T13:52:02.401Z,100.00
2022-10-05T13:54:38.373Z,100.00
2022-10-05T13:57:23.748Z,100.00
2022-10-05T13:59:55.093Z,100.00
2022-10-05T14:02:29.013Z,100.00
2022-10-05T14:05:03.030Z,99.91
2022-10-05T14:07:34.303Z,94.71
2022-10-05T14:10:04.681Z,90.36
2022-10-05T14:12:40.796Z,89.04
2022-10-05T14:15:21.830Z,94.32
2022-10-05T14:17:52.834Z,93.29
2022-10-05T14:20:24.807Z,88.45
2022-10-05T14:22:56.066Z,92.97
2022-10-05T14:25:24.908Z,93.71
2022-10-05T14:27:58.947Z,95.11
2022-10-05T14:30:28.543Z,96.49
2022-10-05T14:33:00.681Z,100.00
2022-10-05T14:35:31.077Z,94.19
2022-10-05T14:38:01.685Z,100.00
2022-10-05T14:40:34.105Z,98.55
2022-10-05T14:43:17.681Z,100.00
2022-10-05T14:45:55.212Z,100.00
2022-10-05T14:48:28.006Z,100.00
2022-10-05T14:50:57.976Z,100.00
2022-10-05T14:53:26.682Z,100.00
2022-10-05T14:56:07.557Z,100.00
2022-10-05T14:59:04.220Z,100.00
2022-10-05T15:01:35.405Z,100.00
2022-10-05T15:04:15.120Z,100.00
2022-10-05T15:06:52.175Z,100.00
2022-10-05T15:09:43.188Z,100.00
2022-10-05T15:12:15.765Z,100.00
2022-10-05T15:14:46.418Z,100.00
2022-10-05T15:17:18.330Z,100.00
2022-10-05T15:19:55.882Z,100.00
2022-10-05T15:22:31.795Z,100.00
2022-10-05T15:25:05.724Z,100.00
2022-10-05T15:27:46.147Z,100.00
2022-10-05T15:30:18.260Z,100.00
2022-10-05T15:32:57.127Z,100.00
2022-10-05T15:35:48.106Z,100.00
2022-10-05T15:38:22.035Z,100.00
2022-10-05T15:40:59.059Z,100.00
2022-10-05T15:43:32.456Z,100.00
2022-10-05T15:46:04.719Z,100.00
2022-10-05T15:48:41.255Z,100.00
2022-10-05T15:51:18.242Z,100.00
2022-10-05T15:53:53.199Z,100.00
2022-10-05T15:56:28.623Z,100.00
2022-10-05T15:58:59.146Z,100.00
2022-10-05T16:01:43.580Z,100.00
2022-10-05T16:04:15.720Z,100.00
2022-10-05T16:07:08.571Z,100.00
2022-10-05T16:09:56.287Z,100.00
2022-10-05T16:12:35.555Z,100.00
2022-10-05T16:15:21.844Z,100.00
2022-10-05T16:18:11.384Z,100.00
2022-10-05T16:20:50.279Z,100.00
2022-10-05T16:23:26.416Z,100.00
2022-10-05T16:26:02.913Z,100.00
2022-10-05T16:28:38.796Z,100.00
2022-10-05T16:31:13.023Z,100.00
2022-10-05T16:33:53.270Z,100.00
2022-10-05T16:36:35.937Z,100.00
2022-10-05T16:39:08.719Z,100.00
2022-10-05T16:41:43.170Z,100.00
2022-10-05T16:44:18.139Z,100.00
2022-10-05T16:46:50.676Z,100.00
2022-10-05T16:49:26.974Z,100.00
2022-10-05T16:51:59.190Z,100.00
2022-10-05T16:54:32.869Z,100.00
2022-10-05T16:57:05.902Z,100.00
2022-10-05T17:00:18.722Z,100.00
2022-10-05T17:03:15.039Z,100.00
2022-10-05T17:06:09.872Z,100.00
2022-10-05T17:09:09.865Z,100.00
2022-10-05T17:11:46.793Z,100.00
2022-10-05T17:14:26.920Z,100.00
2022-10-05T17:17:08.433Z,100.00
2022-10-05T17:19:56.989Z,100.00
2022-10-05T17:22:28.565Z,100.00
2022-10-05T17:25:04.748Z,100.00
2022-10-05T17:27:36.673Z,100.00
2022-10-05T17:30:24.514Z,100.00
2022-10-05T17:32:57.556Z,100.00
2022-10-05T17:36:04.481Z,100.00
2022-10-05T17:38:47.903Z,100.00
2022-10-05T17:41:19.886Z,100.00
2022-10-05T17:44:34.448Z,100.00
2022-10-05T17:47:09.212Z,100.00
2022-10-05T17:49:48.050Z,100.00
2022-10-05T17:52:43.732Z,100.00
2022-10-05T17:55:43.528Z,100.00
2022-10-05T17:59:01.226Z,100.00
2022-10-05T18:01:35.015Z,100.00
2022-10-05T18:04:30.574Z,100.00
2022-10-05T18:07:05.093Z,100.00
2022-10-05T18:09:55.273Z,100.00
2022-10-05T18:12:39.440Z,100.00
2022-10-05T18:15:46.811Z,100.00
2022-10-05T18:18:57.626Z,100.00
2022-10-05T18:21:35.538Z,100.00
2022-10-05T18:24:28.670Z,100.00
2022-10-05T18:27:06.800Z,100.00
2022-10-05T18:30:05.787Z,100.00
2022-10-05T18:33:09.664Z,100.00
2022-10-05T18:35:47.439Z,100.00
2022-10-05T18:38:28.865Z,100.00
2022-10-05T18:41:02.936Z,100.00
2022-10-05T18:43:37.619Z,100.00
2022-10-05T18:46:15.899Z,100.00
2022-10-05T18:48:51.897Z,100.00
2022-10-05T18:51:26.268Z,100.00
2022-10-05T18:54:08.000Z,100.00
2022-10-05T18:56:43.994Z,100.00
2022-10-05T18:59:29.543Z,100.00
2022-10-05T19:02:17.459Z,100.00
2022-10-05T19:05:00.958Z,100.00
2022-10-05T19:07:38.545Z,100.00
2022-10-05T19:10:19.939Z,100.00
2022-10-05T19:13:03.501Z,100.00
2022-10-05T19:15:37.872Z,100.00
2022-10-05T19:18:26.919Z,100.00
2022-10-05T19:21:01.327Z,100.00
2022-10-05T19:23:54.310Z,100.00
2022-10-05T19:26:38.636Z,100.00
2022-10-05T19:29:15.036Z,100.00
2022-10-05T19:31:50.684Z,100.00
2022-10-05T19:34:30.810Z,100.00
2022-10-05T19:37:04.882Z,100.00
2022-10-05T19:39:40.056Z,100.00
2022-10-05T19:42:27.175Z,100.00
2022-10-05T19:45:04.110Z,100.00
2022-10-05T19:47:44.047Z,100.00
2022-10-05T19:50:27.749Z,100.00
2022-10-05T19:53:08.286Z,100.00
2022-10-05T19:55:40.003Z,100.00
2022-10-05T19:58:21.207Z,100.00
2022-10-05T20:00:58.638Z,100.00
2022-10-05T20:03:29.295Z,100.00
2022-10-05T20:06:00.529Z,100.00
2022-10-05T20:08:39.457Z,100.00
2022-10-05T20:11:10.373Z,100.00
2022-10-05T20:13:42.135Z,100.00
2022-10-05T20:16:53.041Z,100.00
2022-10-05T20:19:47.507Z,100.00
2022-10-05T20:22:30.772Z,100.00
2022-10-05T20:25:01.282Z,100.00
2022-10-05T20:27:37.848Z,100.00
2022-10-05T20:30:09.667Z,100.00
2022-10-05T20:32:38.620Z,100.00
2022-10-05T20:35:07.919Z,100.00
2022-10-05T20:37:36.889Z,100.00
2022-10-05T20:40:06.271Z,100.00
2022-10-05T20:42:34.672Z,100.00
2022-10-05T20:45:03.521Z,100.00
2022-10-05T20:47:34.292Z,100.00
2022-10-05T20:50:05.585Z,100.00
2022-10-05T20:52:33.878Z,100.00
2022-10-05T20:55:02.194Z,100.00
2022-10-05T20:57:30.547Z,100.00
2022-10-05T20:59:58.908Z,100.00
2022-10-05T21:02:27.181Z,100.00
2022-10-05T21:04:56.997Z,100.00
2022-10-05T21:07:25.792Z,100.00
2022-10-05T21:09:55.766Z,100.00
2022-10-05T21:12:23.977Z,100.00
2022-10-05T21:14:53.169Z,100.00
2022-10-05T21:17:21.373Z,100.00
2022-10-05T21:19:49.654Z,100.00
2022-10-05T21:22:19.214Z,100.00
2022-10-05T21:24:48.002Z,100.00
2022-10-05T21:27:16.539Z,100.00
2022-10-05T21:29:45.463Z,100.00
2022-10-05T21:32:13.688Z,100.00
2022-10-05T21:34:42.644Z,100.00
2022-10-05T21:37:10.907Z,100.00
2022-10-05T21:39:40.718Z,100.00
2022-10-05T21:42:08.915Z,100.00
2022-10-05T21:44:37.158Z,100.00
2022-10-05T21:47:07.019Z,100.00
2022-10-05T21:49:35.549Z,100.00
2022-10-05T21:52:05.363Z,100.00
2022-10-05T21:54:33.805Z,100.00
2022-10-05T21:57:03.836Z,100.00
2022-10-05T21:59:33.810Z,100.00
2022-10-05T22:02:02.442Z,100.00
2022-10-05T22:04:30.818Z,100.00
2022-10-05T22:06:59.430Z,100.00
2022-10-05T22:09:27.709Z,100.00
2022-10-05T22:11:56.772Z,100.00
2022-10-05T22:14:26.566Z,100.00
2022-10-05T22:16:55.445Z,100.00
2022-10-05T22:19:23.625Z,100.00
2022-10-05T22:21:51.872Z,100.00
2022-10-05T22:24:20.051Z,100.00
2022-10-05T22:26:51.487Z,100.00
2022-10-05T22:29:20.133Z,100.00
2022-10-05T22:31:50.006Z,100.00
2022-10-05T22:34:19.138Z,100.00
2022-10-05T22:36:47.591Z,100.00
2022-10-05T22:39:16.044Z,100.00
2022-10-05T22:41:44.324Z,100.00
2022-10-05T22:44:12.578Z,100.00
2022-10-05T22:46:40.810Z,100.00
2022-10-05T22:49:10.597Z,100.00
2022-10-05T22:51:38.808Z,100.00
2022-10-05T22:54:07.487Z,100.00
2022-10-05T22:56:35.782Z,100.00
2022-10-05T22:59:03.995Z,100.00
2022-10-05T23:01:32.269Z,100.00
2022-10-05T23:04:00.557Z,100.00
2022-10-05T23:06:31.722Z,100.00
2022-10-05T23:08:59.934Z,100.00
2022-10-05T23:11:30.240Z,100.00
2022-10-05T23:13:59.939Z,100.00
2022-10-05T23:16:29.738Z,100.00
2022-10-05T23:18:58.499Z,100.00
2022-10-05T23:21:30.482Z,100.00
2022-10-05T23:23:58.897Z,100.00
2022-10-05T23:26:27.228Z,100.00
2022-10-05T23:28:55.452Z,100.00
2022-10-05T23:31:25.655Z,100.00
2022-10-05T23:33:54.522Z,100.00
2022-10-05T23:36:24.067Z,100.00
2022-10-05T23:38:53.846Z,100.00
2022-10-05T23:41:22.574Z,100.00
2022-10-05T23:43:50.778Z,100.00
2022-10-05T23:46:19.352Z,100.00
2022-10-05T23:48:47.599Z,100.00
2022-10-05T23:51:16.269Z,100.00
2022-10-05T23:53:44.799Z,100.00
2022-10-05T23:56:14.652Z,100.00
2022-10-05T23:58:42.887Z,100.00
